Time;durP1;ratioP1;P1;durP2;ratioP2;P2;SDS_P1;SDS_P2;PMS_P1;PMS_P2;Temp;Humidity;BMP_temperature;BMP_pressure;BME280_temperature;BME280_humidity;BME280_pressure;Samples;Min_cycle;Max_cycle;Signal;HPM_P1;HPM_P2
2021/12/23 00:00:43;;;;;;;135.70;51.60;;;;;;;-5.95;75.37;99489.96;105707;1319;22659;-77
2021/12/23 00:03:10;;;;;;;129.80;49.30;;;;;;;-5.95;75.26;99482.15;105714;1319;22672;-76
2021/12/23 00:05:37;;;;;;;156.80;64.20;;;;;;;-5.93;75.69;99482.19;105695;1319;22586;-76
2021/12/23 00:08:04;;;;;;;124.10;48.10;;;;;;;-5.91;76.06;99475.95;105691;1320;22668;-77
2021/12/23 00:10:31;;;;;;;139.20;53.00;;;;;;;-5.91;76.46;99473.05;105717;1319;22570;-76
2021/12/23 00:12:58;;;;;;;123.20;46.80;;;;;;;-5.93;76.42;99469.64;105739;1318;25549;-76
2021/12/23 00:15:50;;;;;;;116.20;47.20;;;;;;;-5.94;75.94;99467.08;105702;1319;22581;-78
2021/12/23 00:18:30;;;;;;;133.60;50.70;;;;;;;-5.96;75.69;99471.11;105734;1320;22585;-77
2021/12/23 00:23:43;;;;;;;121.30;47.70;;;;;;;-6.00;75.53;99466.31;105701;1319;23171;-76
2021/12/23 00:26:10;;;;;;;102.30;42.70;;;;;;;-6.01;75.18;99465.96;105726;1320;25406;-76
2021/12/23 00:28:38;;;;;;;129.40;50.90;;;;;;;-6.03;75.16;99465.08;105743;1319;24639;-77
2021/12/23 00:31:06;;;;;;;120.10;47.40;;;;;;;-6.04;75.11;99463.53;105758;1320;22656;-76
2021/12/23 00:33:35;;;;;;;102.60;41.10;;;;;;;-6.06;74.98;99458.08;105729;1320;22706;-76
2021/12/23 00:36:05;;;;;;;123.60;46.50;;;;;;;-6.09;74.90;99456.02;105717;1320;23957;-77
2021/12/23 00:38:40;;;;;;;132.60;52.70;;;;;;;-6.10;75.04;99457.52;105730;1320;22677;-75
2021/12/23 00:41:08;;;;;;;134.30;58.00;;;;;;;-6.06;75.18;99462.66;105729;1319;22840;-75
2021/12/23 00:43:36;;;;;;;131.30;53.80;;;;;;;-6.03;75.40;99460.84;105750;1319;22746;-75
2021/12/23 00:46:04;;;;;;;123.90;48.70;;;;;;;-6.04;76.16;99457.77;105583;1319;22674;-78
2021/12/23 00:48:31;;;;;;;118.20;48.10;;;;;;;-6.07;76.36;99452.13;105731;1320;24234;-77
2021/12/23 00:50:58;;;;;;;116.30;47.00;;;;;;;-6.10;76.11;99453.98;105741;1319;22622;-77
2021/12/23 00:53:26;;;;;;;115.00;48.90;;;;;;;-6.14;75.93;99453.56;105801;1320;22710;-79
2021/12/23 00:55:55;;;;;;;115.80;45.90;;;;;;;-6.19;75.68;99457.23;105779;1320;22642;-78
2021/12/23 00:58:23;;;;;;;110.40;46.10;;;;;;;-6.25;75.53;99454.08;105725;1320;22700;-77
2021/12/23 01:00:50;;;;;;;110.80;44.30;;;;;;;-6.30;75.53;99456.05;105732;1319;22649;-78
2021/12/23 01:03:18;;;;;;;112.60;44.60;;;;;;;-6.35;75.47;99458.15;105827;1320;22702;-77
2021/12/23 01:05:46;;;;;;;115.40;45.30;;;;;;;-6.41;75.28;99454.50;105759;1319;25547;-77
2021/12/23 01:08:13;;;;;;;110.50;43.10;;;;;;;-6.46;75.25;99450.38;105750;1320;24393;-77
2021/12/23 01:10:40;;;;;;;113.10;43.50;;;;;;;-6.51;75.08;99450.96;105723;1320;22928;-78
2021/12/23 01:13:13;;;;;;;121.10;45.90;;;;;;;-6.57;75.03;99446.64;105737;1320;22576;-77
2021/12/23 01:15:58;;;;;;;135.80;49.30;;;;;;;-6.63;75.09;99446.21;105741;1313;22589;-77
2021/12/23 01:18:30;;;;;;;140.90;57.70;;;;;;;-6.64;74.87;99440.77;105729;1320;22570;-78
2021/12/23 01:21:16;;;;;;;125.90;55.00;;;;;;;-6.65;75.27;99432.46;105740;1320;25407;-77
2021/12/23 01:23:49;;;;;;;121.60;48.00;;;;;;;-6.68;76.02;99427.48;105725;1319;22646;-77
2021/12/23 01:26:19;;;;;;;137.50;54.30;;;;;;;-6.75;75.97;99420.94;105772;1319;22664;-80
2021/12/23 01:28:49;;;;;;;155.00;60.90;;;;;;;-6.80;75.98;99415.94;105718;1319;22585;-78
2021/12/23 01:31:17;;;;;;;169.50;66.30;;;;;;;-6.84;75.88;99420.27;105719;1316;22717;-78
2021/12/23 01:33:44;;;;;;;164.50;63.70;;;;;;;-6.89;75.66;99419.35;105740;1319;22589;-77
2021/12/23 01:36:11;;;;;;;149.10;58.80;;;;;;;-6.95;75.39;99422.80;105739;1319;22585;-78
2021/12/23 01:38:39;;;;;;;153.60;59.30;;;;;;;-7.02;75.24;99416.25;105727;1319;22682;-79
2021/12/23 01:41:06;;;;;;;143.30;54.80;;;;;;;-7.07;75.54;99412.60;105730;1319;24443;-77
2021/12/23 01:43:34;;;;;;;156.00;57.90;;;;;;;-7.11;75.33;99410.49;105712;1319;22795;-78
2021/12/23 01:46:02;;;;;;;164.20;58.90;;;;;;;-7.13;75.47;99408.76;105765;1318;24215;-77
2021/12/23 01:48:29;;;;;;;183.60;72.20;;;;;;;-7.11;75.22;99405.77;105719;1319;22593;-75
2021/12/23 01:50:56;;;;;;;175.80;69.50;;;;;;;-7.08;75.31;99407.84;105519;1319;22666;-77
2021/12/23 01:53:23;;;;;;;171.70;69.30;;;;;;;-7.06;75.95;99401.79;105488;1316;22588;-77
2021/12/23 01:55:50;;;;;;;170.50;66.90;;;;;;;-7.01;76.80;99399.83;105489;1319;22625;-77
2021/12/23 01:58:18;;;;;;;168.70;66.50;;;;;;;-6.97;76.97;99397.17;105514;1318;22628;-77
2021/12/23 02:00:49;;;;;;;166.10;63.70;;;;;;;-6.94;77.32;99394.54;105589;1319;22765;-77
2021/12/23 02:03:16;;;;;;;173.30;65.20;;;;;;;-6.90;77.53;99392.23;105484;1317;22563;-77
2021/12/23 02:05:43;;;;;;;172.30;61.60;;;;;;;-6.89;77.78;99386.34;105460;1318;22610;-77
2021/12/23 02:08:11;;;;;;;146.60;54.50;;;;;;;-6.91;77.46;99388.68;105519;1319;22590;-77
2021/12/23 02:10:40;;;;;;;175.10;65.30;;;;;;;-6.91;77.53;99386.98;105497;1319;24296;-77
2021/12/23 02:13:07;;;;;;;187.40;69.80;;;;;;;-6.91;77.03;99382.06;105486;1318;23398;-77
2021/12/23 02:15:34;;;;;;;169.50;64.10;;;;;;;-6.92;76.58;99378.65;105478;1319;22656;-77
2021/12/23 02:18:01;;;;;;;205.50;76.40;;;;;;;-6.94;76.34;99374.05;105486;1319;22602;-78
2021/12/23 02:20:32;;;;;;;212.00;77.20;;;;;;;-6.98;76.17;99371.27;105558;1319;22653;-78
2021/12/23 02:23:00;;;;;;;170.90;65.60;;;;;;;-7.02;76.14;99371.21;105622;1319;22582;-78
2021/12/23 02:25:28;;;;;;;177.40;66.30;;;;;;;-7.06;75.90;99365.04;105587;1319;23017;-78
2021/12/23 02:27:58;;;;;;;150.50;60.90;;;;;;;-7.07;75.89;99361.82;105588;1318;22622;-76
2021/12/23 02:30:28;;;;;;;162.50;58.40;;;;;;;-7.07;75.85;99362.83;105567;1318;22643;-76
2021/12/23 02:32:55;;;;;;;141.00;54.80;;;;;;;-7.07;76.08;99363.00;105606;1318;24211;-76
2021/12/23 02:35:24;;;;;;;154.60;60.40;;;;;;;-7.06;75.63;99356.90;105576;1316;22656;-77
2021/12/23 02:37:52;;;;;;;160.30;68.80;;;;;;;-7.03;75.68;99356.80;105567;1319;23356;-77
2021/12/23 02:40:44;;;;;;;149.00;62.70;;;;;;;-6.99;76.13;99357.20;105661;1319;22646;-76
2021/12/23 02:43:23;;;;;;;138.10;54.80;;;;;;;-6.96;76.40;99354.02;105592;1318;22727;-76
2021/12/23 02:45:55;;;;;;;138.10;53.50;;;;;;;-6.96;76.74;99350.97;105611;1313;22743;-76
2021/12/23 02:48:23;;;;;;;145.30;56.50;;;;;;;-6.94;76.84;99348.14;105620;1319;23155;-77
2021/12/23 02:50:53;;;;;;;132.90;54.30;;;;;;;-6.92;77.22;99344.45;105601;1319;25533;-76
2021/12/23 02:53:21;;;;;;;132.60;54.20;;;;;;;-6.91;77.35;99341.75;105604;1318;22649;-77
2021/12/23 02:55:48;;;;;;;128.40;52.30;;;;;;;-6.90;77.16;99335.17;105792;1319;24263;-76
2021/12/23 02:58:16;;;;;;;123.20;50.40;;;;;;;-6.91;77.38;99329.90;105925;1318;22593;-76
2021/12/23 03:00:48;;;;;;;140.60;51.60;;;;;;;-6.90;77.33;99321.45;105640;1319;23416;-75
2021/12/23 03:03:15;;;;;;;161.00;62.40;;;;;;;-6.91;77.20;99320.58;106115;1318;22658;-78
2021/12/23 03:05:47;;;;;;;154.60;58.50;;;;;;;-6.95;77.17;99315.61;105467;1317;22735;-76
2021/12/23 03:08:14;;;;;;;153.30;61.10;;;;;;;-6.99;76.80;99308.11;105629;1316;22607;-75
2021/12/23 03:10:41;;;;;;;177.90;70.70;;;;;;;-7.06;76.43;99304.26;105622;1319;22600;-77
2021/12/23 03:13:08;;;;;;;177.80;67.80;;;;;;;-7.09;76.41;99299.48;105584;1319;22591;-76
2021/12/23 03:15:35;;;;;;;178.70;67.70;;;;;;;-7.10;76.03;99298.95;105563;1319;22676;-77
2021/12/23 03:18:02;;;;;;;173.90;68.60;;;;;;;-7.11;76.06;99297.57;105623;1319;22649;-76
2021/12/23 03:20:30;;;;;;;176.60;66.50;;;;;;;-7.14;76.27;99292.95;105608;1317;22651;-77
2021/12/23 03:22:56;;;;;;;166.10;66.50;;;;;;;-7.12;76.09;99290.77;105619;1318;22700;-76
2021/12/23 03:25:23;;;;;;;170.80;67.30;;;;;;;-7.14;75.68;99286.02;105575;1314;22685;-76
2021/12/23 03:27:50;;;;;;;180.80;66.90;;;;;;;-7.16;75.87;99283.11;105594;1319;22742;-76
2021/12/23 03:30:17;;;;;;;173.10;64.90;;;;;;;-7.16;75.75;99283.12;105618;1317;22653;-76
2021/12/23 03:32:44;;;;;;;180.60;70.70;;;;;;;-7.16;75.33;99280.75;105638;1318;22589;-76
2021/12/23 03:35:11;;;;;;;154.40;65.10;;;;;;;-7.13;75.43;99283.16;105607;1319;22645;-76
2021/12/23 03:37:40;;;;;;;164.40;64.40;;;;;;;-7.10;76.20;99278.46;105600;1319;22672;-76
2021/12/23 03:40:07;;;;;;;159.60;61.90;;;;;;;-7.09;76.43;99273.92;105621;1316;22612;-76
2021/12/23 03:42:34;;;;;;;159.00;60.40;;;;;;;-7.08;76.38;99272.41;105816;1317;22737;-76
2021/12/23 03:45:05;;;;;;;158.60;59.80;;;;;;;-7.05;76.78;99271.43;105642;1318;22649;-76
2021/12/23 03:47:32;;;;;;;155.70;62.30;;;;;;;-7.03;76.99;99267.90;105620;1319;22579;-76
2021/12/23 03:49:59;;;;;;;148.60;58.90;;;;;;;-7.02;77.28;99267.08;105582;1316;22626;-76
2021/12/23 03:52:26;;;;;;;138.80;57.70;;;;;;;-7.00;77.24;99267.61;105567;1319;22598;-76
2021/12/23 03:54:53;;;;;;;151.00;60.20;;;;;;;-6.99;76.93;99267.97;105611;1317;22710;-76
2021/12/23 03:57:20;;;;;;;145.20;56.90;;;;;;;-6.99;77.27;99268.99;105635;1319;22585;-76
2021/12/23 03:59:47;;;;;;;140.70;55.10;;;;;;;-7.03;77.18;99268.73;105593;1318;24229;-76
2021/12/23 04:02:14;;;;;;;151.30;57.30;;;;;;;-7.08;76.64;99264.46;105459;1319;22723;-76
2021/12/23 04:04:42;;;;;;;157.80;61.30;;;;;;;-7.12;76.34;99262.68;105504;1319;22569;-76
2021/12/23 04:07:09;;;;;;;150.00;57.40;;;;;;;-7.18;76.06;99266.84;105618;1318;22695;-76
2021/12/23 04:09:35;;;;;;;155.60;60.80;;;;;;;-7.28;75.79;99256.36;105667;1319;23281;-76
2021/12/23 04:12:03;;;;;;;153.20;58.00;;;;;;;-7.37;75.62;99254.35;105641;1319;22582;-76
2021/12/23 04:14:30;;;;;;;152.80;57.50;;;;;;;-7.46;75.61;99248.96;105628;1319;22579;-76
2021/12/23 04:16:57;;;;;;;139.20;55.60;;;;;;;-7.52;75.29;99246.64;105590;1311;23956;-76
2021/12/23 04:19:28;;;;;;;161.00;58.20;;;;;;;-7.60;75.19;99246.52;105585;1319;22585;-76
2021/12/23 04:21:55;;;;;;;158.80;57.60;;;;;;;-7.67;75.02;99246.91;105628;1318;24234;-75
2021/12/23 04:24:22;;;;;;;149.40;62.50;;;;;;;-7.71;75.08;99243.98;105616;1319;22566;-75
2021/12/23 04:26:50;;;;;;;161.00;67.30;;;;;;;-7.72;74.99;99243.45;105598;1319;22589;-75
2021/12/23 04:29:17;;;;;;;145.90;56.90;;;;;;;-7.72;75.69;99243.96;105586;1317;22930;-78
2021/12/23 04:31:45;;;;;;;154.50;61.80;;;;;;;-7.74;75.73;99238.17;105902;1319;22602;-75
2021/12/23 04:34:12;;;;;;;147.80;55.30;;;;;;;-7.72;76.19;99236.34;105571;1318;22566;-76
2021/12/23 04:36:39;;;;;;;141.20;58.50;;;;;;;-7.71;76.39;99233.66;105636;1319;22676;-76
2021/12/23 04:39:06;;;;;;;141.60;55.20;;;;;;;-7.69;76.76;99231.66;105587;1318;22590;-76
2021/12/23 04:41:33;;;;;;;140.50;53.30;;;;;;;-7.67;76.58;99229.99;105605;1318;22754;-76
2021/12/23 04:44:00;;;;;;;141.80;54.20;;;;;;;-7.66;76.72;99224.79;105579;1319;22688;-76
2021/12/23 04:46:27;;;;;;;162.80;59.80;;;;;;;-7.63;76.54;99217.38;105616;1318;22567;-75
2021/12/23 04:48:54;;;;;;;157.00;60.30;;;;;;;-7.63;76.95;99207.57;105605;1316;23597;-76
2021/12/23 04:51:22;;;;;;;153.20;60.70;;;;;;;-7.63;76.90;99206.73;105531;1319;24215;-76
2021/12/23 04:53:49;;;;;;;145.70;58.50;;;;;;;-7.63;76.80;99205.05;105586;1316;22620;-76
2021/12/23 04:56:18;;;;;;;141.90;57.50;;;;;;;-7.63;76.97;99201.66;105258;1308;429537;-78
2021/12/23 04:58:45;;;;;;;139.30;56.50;;;;;;;-7.62;77.03;99203.04;105587;1319;22598;-77
2021/12/23 05:01:28;;;;;;;143.00;59.90;;;;;;;-7.60;76.83;99203.55;105660;1318;23239;-75
2021/12/23 05:03:55;;;;;;;136.90;56.60;;;;;;;-7.58;77.05;99199.02;105606;1318;22569;-75
2021/12/23 05:06:22;;;;;;;148.40;56.00;;;;;;;-7.57;76.85;99190.58;105618;1317;25281;-76
2021/12/23 05:08:49;;;;;;;136.40;57.00;;;;;;;-7.57;76.72;99187.89;105576;1316;22822;-76
2021/12/23 05:11:16;;;;;;;144.40;58.30;;;;;;;-7.56;76.90;99177.91;105581;1319;22601;-76
2021/12/23 05:13:47;;;;;;;154.70;61.90;;;;;;;-7.56;76.97;99175.03;105458;1319;26273;-75
2021/12/23 05:16:18;;;;;;;159.40;65.10;;;;;;;-7.56;77.09;99172.50;105592;1319;24541;-77
2021/12/23 05:18:46;;;;;;;152.80;60.30;;;;;;;-7.58;76.69;99175.84;105738;1318;23127;-76
2021/12/23 05:21:13;;;;;;;158.90;63.10;;;;;;;-7.61;76.36;99178.85;105701;1316;22576;-76
2021/12/23 05:23:40;;;;;;;154.20;64.00;;;;;;;-7.65;76.17;99173.38;105593;1319;24386;-75
2021/12/23 05:26:08;;;;;;;164.70;64.20;;;;;;;-7.70;75.84;99173.80;105594;1319;22603;-75
2021/12/23 05:28:36;;;;;;;149.50;63.80;;;;;;;-7.75;75.39;99167.45;105626;1318;23429;-76
2021/12/23 05:31:04;;;;;;;151.10;63.80;;;;;;;-7.79;75.48;99166.21;105913;1318;22715;-75
2021/12/23 05:33:32;;;;;;;142.90;56.60;;;;;;;-7.83;75.74;99164.27;105956;1317;22575;-76
2021/12/23 05:35:59;;;;;;;141.60;54.60;;;;;;;-7.88;75.61;99161.67;105621;1317;22684;-77
2021/12/23 05:38:26;;;;;;;128.00;50.90;;;;;;;-7.92;75.11;99160.09;105607;1318;22649;-76
2021/12/23 05:40:53;;;;;;;133.20;57.60;;;;;;;-7.94;75.37;99161.39;105600;1319;22616;-76
2021/12/23 05:43:21;;;;;;;150.40;64.20;;;;;;;-7.92;75.14;99161.93;105609;1319;23026;-76
2021/12/23 05:45:48;;;;;;;158.70;60.00;;;;;;;-7.91;75.43;99158.23;105603;1319;22585;-75
2021/12/23 05:48:15;;;;;;;137.50;56.90;;;;;;;-7.91;76.03;99154.02;105600;1319;22615;-75
2021/12/23 05:50:42;;;;;;;157.50;60.70;;;;;;;-7.91;76.00;99153.01;105717;1317;25326;-76
2021/12/23 05:53:09;;;;;;;157.40;64.50;;;;;;;-7.90;76.62;99147.77;105884;1319;22638;-75
2021/12/23 05:55:36;;;;;;;147.90;63.00;;;;;;;-7.90;76.62;99138.30;105756;1319;22562;-76
2021/12/23 05:58:03;;;;;;;149.80;63.00;;;;;;;-7.89;76.93;99139.69;105619;1319;25585;-76
2021/12/23 06:00:32;;;;;;;157.50;61.30;;;;;;;-7.87;76.79;99135.66;105593;1317;22571;-76
2021/12/23 06:03:01;;;;;;;138.60;55.90;;;;;;;-7.84;77.02;99133.32;105577;1318;26218;-77
2021/12/23 06:05:29;;;;;;;157.70;58.60;;;;;;;-7.88;76.54;99136.48;105573;1319;22599;-76
2021/12/23 06:07:56;;;;;;;153.00;56.60;;;;;;;-7.94;76.11;99134.69;105574;1319;23117;-76
2021/12/23 06:10:23;;;;;;;158.90;63.20;;;;;;;-7.99;75.64;99135.45;105577;1319;22646;-76
2021/12/23 06:12:50;;;;;;;172.30;66.20;;;;;;;-8.09;75.63;99132.92;105587;1314;22701;-76
2021/12/23 06:15:17;;;;;;;157.60;58.70;;;;;;;-8.14;75.46;99125.40;105591;1318;22642;-76
2021/12/23 06:17:45;;;;;;;168.70;62.00;;;;;;;-8.18;75.05;99117.73;105555;1314;22836;-76
2021/12/23 06:20:13;;;;;;;152.50;62.30;;;;;;;-8.21;74.91;99119.52;105595;1318;25313;-76
2021/12/23 06:22:40;;;;;;;172.10;65.70;;;;;;;-8.22;75.19;99112.59;105624;1318;22697;-76
2021/12/23 06:25:10;;;;;;;180.40;75.70;;;;;;;-8.20;75.29;99111.77;105596;1317;24427;-76
2021/12/23 06:27:38;;;;;;;203.70;78.00;;;;;;;-8.14;75.16;99110.52;105595;1319;22797;-77
2021/12/23 06:30:26;;;;;;;199.00;78.10;;;;;;;-8.11;75.22;99111.75;105460;1317;22612;-76
2021/12/23 06:32:55;;;;;;;187.50;70.40;;;;;;;-8.10;75.57;99110.61;105640;1319;22630;-78
2021/12/23 06:35:25;;;;;;;174.70;67.20;;;;;;;-8.08;76.30;99107.77;105711;1314;25333;-76
2021/12/23 06:37:53;;;;;;;174.20;65.70;;;;;;;-8.05;76.42;99105.77;105607;1319;24366;-76
2021/12/23 06:40:21;;;;;;;167.80;68.80;;;;;;;-8.01;76.53;99103.98;105611;1319;22582;-76
2021/12/23 06:42:49;;;;;;;152.00;63.70;;;;;;;-7.97;76.56;99102.54;105840;1319;25437;-75
2021/12/23 06:45:16;;;;;;;170.40;63.80;;;;;;;-7.91;76.50;99104.98;105594;1319;24389;-79
2021/12/23 06:47:44;;;;;;;161.20;60.80;;;;;;;-7.85;76.49;99105.40;105636;1319;22604;-77
2021/12/23 06:50:13;;;;;;;162.90;62.30;;;;;;;-7.82;76.26;99104.61;105609;1319;22574;-75
2021/12/23 06:52:40;;;;;;;161.00;63.20;;;;;;;-7.77;76.44;99099.62;105552;1319;22748;-74
2021/12/23 06:55:10;;;;;;;186.90;68.00;;;;;;;-7.73;76.66;99092.23;105562;1319;22702;-76
2021/12/23 06:57:39;;;;;;;189.70;67.30;;;;;;;-7.69;76.47;99089.24;105588;1318;25403;-79
2021/12/23 07:00:09;;;;;;;181.00;67.40;;;;;;;-7.65;76.56;99085.09;105602;1319;22668;-72
2021/12/23 07:02:39;;;;;;;192.50;70.40;;;;;;;-7.61;76.26;99088.52;105624;1317;24276;-75
2021/12/23 07:05:07;;;;;;;217.00;77.80;;;;;;;-7.58;76.47;99092.63;105595;1318;22643;-79
2021/12/23 07:10:21;;;;;;;332.20;100.50;;;;;;;-7.48;76.72;99094.77;105629;1319;26304;-76
2021/12/23 07:12:49;;;;;;;313.70;94.60;;;;;;;-7.48;76.45;99096.98;105604;1319;22581;-81
2021/12/23 07:15:16;;;;;;;412.30;120.10;;;;;;;-7.47;75.79;99090.41;105494;1316;27690;-80
2021/12/23 07:17:43;;;;;;;456.40;138.70;;;;;;;-7.49;75.67;99077.34;105646;1319;22585;-75
2021/12/23 07:20:11;;;;;;;437.20;120.60;;;;;;;-7.49;75.38;99071.59;105582;1319;22736;-77
2021/12/23 07:22:38;;;;;;;332.50;96.60;;;;;;;-7.50;74.91;99073.27;105615;1318;23117;-74
2021/12/23 07:25:06;;;;;;;223.90;83.60;;;;;;;-7.52;74.84;99073.95;105608;1318;23254;-74
2021/12/23 07:27:33;;;;;;;232.40;83.20;;;;;;;-7.54;74.88;99079.83;105786;1318;22586;-74
2021/12/23 07:30:01;;;;;;;288.10;98.30;;;;;;;-7.54;75.04;99077.45;105637;1319;22623;-73
2021/12/23 07:32:28;;;;;;;275.40;90.20;;;;;;;-7.52;74.91;99069.20;105744;1318;24541;-75
2021/12/23 07:34:55;;;;;;;365.80;111.10;;;;;;;-7.49;74.63;99067.20;105550;1319;22563;-77
2021/12/23 07:37:22;;;;;;;313.30;98.90;;;;;;;-7.43;75.11;99063.90;105619;1318;22591;-76
2021/12/23 07:39:50;;;;;;;280.20;91.60;;;;;;;-7.34;74.98;99066.40;105581;1319;22581;-78
2021/12/23 07:42:19;;;;;;;314.70;101.50;;;;;;;-7.25;75.50;99074.80;105573;1317;22581;-77
2021/12/23 07:44:46;;;;;;;339.40;120.80;;;;;;;-7.16;75.91;99077.61;105570;1319;22645;-76
2021/12/23 07:47:14;;;;;;;308.70;113.00;;;;;;;-7.09;76.17;99080.75;105597;1317;23362;-78
2021/12/23 07:49:41;;;;;;;346.40;123.70;;;;;;;-7.00;76.28;99076.45;105633;1318;22787;-75
2021/12/23 07:52:08;;;;;;;255.10;90.50;;;;;;;-6.91;76.40;99073.69;105633;1319;22703;-76
2021/12/23 07:54:36;;;;;;;233.60;79.60;;;;;;;-6.81;76.64;99070.73;105465;1317;22649;-75
2021/12/23 07:57:04;;;;;;;225.30;87.90;;;;;;;-6.71;76.50;99071.02;105575;1319;24366;-76
2021/12/23 07:59:31;;;;;;;216.80;80.00;;;;;;;-6.64;76.74;99072.28;105591;1319;22658;-76
2021/12/23 08:01:58;;;;;;;192.60;77.50;;;;;;;-6.57;76.53;99064.38;105563;1318;22646;-76
2021/12/23 08:04:25;;;;;;;212.90;82.10;;;;;;;-6.51;76.15;99060.54;105585;1318;23064;-77
2021/12/23 08:06:55;;;;;;;222.80;79.40;;;;;;;-6.43;75.90;99057.56;105589;1318;26141;-75
2021/12/23 08:09:23;;;;;;;204.30;75.20;;;;;;;-6.33;75.73;99053.92;105536;1317;22617;-76
2021/12/23 08:11:51;;;;;;;190.20;73.00;;;;;;;-6.27;75.37;99044.50;105617;1319;22649;-76
2021/12/23 08:14:18;;;;;;;231.50;85.90;;;;;;;-6.23;75.33;99041.30;105548;1318;22637;-88
2021/12/23 08:16:45;;;;;;;204.70;81.80;;;;;;;-6.16;75.36;99035.59;105573;1319;25233;-76
2021/12/23 08:19:13;;;;;;;195.50;76.10;;;;;;;-6.10;75.27;99033.09;105576;1319;22810;-73
2021/12/23 08:21:40;;;;;;;200.70;77.00;;;;;;;-6.05;74.87;99028.71;105747;1318;22646;-74
2021/12/23 08:24:07;;;;;;;195.70;79.80;;;;;;;-6.00;74.90;99028.92;105612;1318;22773;-75
2021/12/23 08:26:40;;;;;;;242.30;95.90;;;;;;;-5.93;74.94;99024.06;105613;1319;22573;-74
2021/12/23 08:29:08;;;;;;;158.00;66.80;;;;;;;-5.88;74.60;99024.58;105575;1319;25251;-74
2021/12/23 08:31:36;;;;;;;129.80;53.20;;;;;;;-5.84;74.67;99019.67;105532;1318;22563;-73
2021/12/23 08:34:03;;;;;;;136.30;55.40;;;;;;;-5.78;74.56;99014.11;105583;1319;22690;-76
2021/12/23 08:36:30;;;;;;;130.60;52.20;;;;;;;-5.72;74.57;99009.91;105631;1319;22566;-76
2021/12/23 08:38:58;;;;;;;121.00;51.60;;;;;;;-5.66;74.69;99003.16;105644;1319;22574;-75
2021/12/23 08:41:25;;;;;;;104.20;45.70;;;;;;;-5.60;74.45;98995.38;105640;1317;22673;-77
2021/12/23 08:43:52;;;;;;;107.30;46.90;;;;;;;-5.54;74.49;98985.23;105594;1319;22698;-76
2021/12/23 08:46:20;;;;;;;120.80;53.40;;;;;;;-5.47;74.18;98979.99;105614;1319;22703;-77
2021/12/23 08:48:48;;;;;;;128.80;52.90;;;;;;;-5.43;74.23;98978.98;105633;1319;22740;-76
2021/12/23 08:51:14;;;;;;;118.70;50.20;;;;;;;-5.38;74.41;98976.30;105630;1319;25284;-75
2021/12/23 08:53:42;;;;;;;104.50;45.50;;;;;;;-5.32;74.21;98973.77;105572;1319;22606;-75
2021/12/23 08:56:09;;;;;;;111.50;49.50;;;;;;;-5.24;73.99;98970.06;105576;1319;22584;-74
2021/12/23 08:58:37;;;;;;;109.90;46.80;;;;;;;-5.18;74.07;98964.14;105603;1319;22666;-77
2021/12/23 09:01:04;;;;;;;116.40;49.20;;;;;;;-5.13;73.75;98964.66;105919;1319;24214;-78
2021/12/23 09:03:32;;;;;;;84.80;33.60;;;;;;;-5.07;73.96;98959.92;105680;1319;22653;-75
2021/12/23 09:06:01;;;;;;;96.60;40.50;;;;;;;-5.02;73.57;98953.16;105604;1319;22582;-76
2021/12/23 09:08:28;;;;;;;108.20;44.90;;;;;;;-4.96;73.78;98953.48;105637;1317;22581;-73
2021/12/23 09:10:56;;;;;;;104.60;40.00;;;;;;;-4.88;74.01;98953.17;105627;1319;22611;-77
2021/12/23 09:13:25;;;;;;;95.40;38.70;;;;;;;-4.79;73.91;98947.73;105659;1319;25370;-76
2021/12/23 09:15:52;;;;;;;106.90;45.00;;;;;;;-4.72;73.54;98944.52;105608;1318;22635;-78
2021/12/23 09:18:21;;;;;;;98.20;40.60;;;;;;;-4.63;73.57;98940.27;105597;1319;22652;-77
2021/12/23 09:20:49;;;;;;;126.30;51.40;;;;;;;-4.59;73.37;98938.41;105578;1319;25592;-75
2021/12/23 09:23:17;;;;;;;122.20;51.00;;;;;;;-4.49;73.51;98936.19;105588;1319;22580;-74
2021/12/23 09:25:46;;;;;;;104.20;45.40;;;;;;;-4.40;74.04;98926.32;105586;1319;22647;-73
2021/12/23 09:33:28;;;;;;;113.70;45.70;;;;;;;-4.24;74.45;98907.44;105568;1319;22624;-75
2021/12/23 09:35:55;;;;;;;81.90;33.90;;;;;;;-4.21;73.97;98905.55;105590;1316;23399;-75
2021/12/23 09:38:29;;;;;;;93.60;38.80;;;;;;;-4.19;73.41;98909.28;105604;1318;22571;-75
2021/12/23 09:41:09;;;;;;;92.00;37.50;;;;;;;-4.20;73.28;98905.03;105598;1319;22582;-76
2021/12/23 09:43:39;;;;;;;95.50;39.90;;;;;;;-4.20;73.19;98901.80;105616;1319;25399;-78
2021/12/23 09:46:09;;;;;;;95.90;41.20;;;;;;;-4.14;73.25;98900.27;105594;1318;22596;-77
2021/12/23 09:48:42;;;;;;;109.50;46.30;;;;;;;-4.08;73.25;98898.03;105705;1318;25247;-74
2021/12/23 09:51:11;;;;;;;104.30;44.30;;;;;;;-4.05;72.71;98891.91;105605;1319;26665;-77
2021/12/23 09:53:43;;;;;;;116.70;47.10;;;;;;;-4.11;72.55;98878.64;105648;1319;22646;-76
2021/12/23 09:56:11;;;;;;;114.60;49.20;;;;;;;-4.08;72.83;98873.20;105614;1319;22700;-75
2021/12/23 09:58:39;;;;;;;120.50;50.50;;;;;;;-4.04;72.53;98871.16;105614;1318;22555;-77
2021/12/23 10:01:06;;;;;;;120.60;48.50;;;;;;;-4.04;72.36;98864.02;105873;1319;22635;-75
2021/12/23 10:03:37;;;;;;;81.60;35.20;;;;;;;-3.99;72.79;98852.76;105641;1319;22596;-76
2021/12/23 10:06:04;;;;;;;112.30;45.40;;;;;;;-3.96;72.60;98848.67;105661;1318;22642;-77
2021/12/23 10:08:31;;;;;;;85.80;39.10;;;;;;;-3.97;72.42;98836.77;105645;1319;22621;-76
2021/12/23 10:12:15;;;;;;;124.60;50.10;;;;;;;-3.95;72.36;98831.83;105632;1319;22684;-74
2021/12/23 10:32:13;;;;;;;109.60;42.40;;;;;;;-3.62;72.40;98787.74;104953;1327;22703;-77
2021/12/23 10:39:39;;;;;;;;;;;;;;;-3.47;73.46;98768.91;105637;1319;22712;-76
2021/12/23 10:42:14;;;;;;;102.60;42.00;;;;;;;-3.46;73.32;98760.55;105608;1319;24208;-76
2021/12/23 10:44:59;;;;;;;119.90;45.80;;;;;;;-3.43;72.94;98751.35;105593;1319;22850;-77
2021/12/23 10:47:33;;;;;;;76.80;32.80;;;;;;;-3.37;72.61;98746.70;105608;1319;22571;-75
2021/12/23 10:50:24;;;;;;;85.70;34.80;;;;;;;-3.35;72.12;98744.98;105610;1319;27815;-75
2021/12/23 10:53:02;;;;;;;79.30;32.20;;;;;;;-3.36;71.99;98722.85;105904;1319;22665;-82
2021/12/23 10:58:17;;;;;;;119.00;44.30;;;;;;;-3.36;71.25;98701.23;105907;1319;25541;-77
2021/12/23 11:00:53;;;;;;;90.10;35.60;;;;;;;-3.39;71.27;98695.63;105911;1317;22729;-75
2021/12/23 11:06:19;;;;;;;101.20;47.00;;;;;;;-3.41;71.26;98685.61;106058;1318;22569;-77
2021/12/23 11:12:10;;;;;;;87.00;35.90;;;;;;;-3.47;71.21;98689.23;105617;1317;22716;-78
2021/12/23 11:37:35;;;;;;;107.70;44.90;;;;;;;-3.07;71.10;98629.92;105616;1319;24249;-76
2021/12/23 11:43:23;;;;;;;87.30;43.10;;;;;;;-2.98;71.17;98630.34;105363;1319;22588;-77
2021/12/23 11:45:50;;;;;;;108.40;48.90;;;;;;;-2.87;72.05;98628.67;105641;1319;22680;-77
2021/12/23 11:48:18;;;;;;;71.40;32.10;;;;;;;-2.84;72.45;98622.84;105622;1318;22588;-75
2021/12/23 11:51:01;;;;;;;76.90;35.30;;;;;;;-2.82;72.14;98614.30;105560;1316;22588;-73
2021/12/23 11:53:28;;;;;;;;;;;;;;;-2.83;71.34;98605.96;105634;1318;22549;-75
2021/12/23 11:55:55;;;;;;;77.90;35.60;;;;;;;-2.84;71.65;98600.16;105645;1319;25388;-76
2021/12/23 11:58:25;;;;;;;72.90;35.20;;;;;;;-2.82;71.08;98595.89;105642;1319;22704;-75
2021/12/23 12:01:29;;;;;;;109.60;46.80;;;;;;;-2.81;70.90;98584.96;105623;1319;22643;-76
2021/12/23 12:03:59;;;;;;;92.80;40.20;;;;;;;-2.79;71.04;98572.67;104989;1327;22633;-76
2021/12/23 12:06:45;;;;;;;73.70;33.40;;;;;;;-2.76;71.14;98579.77;105005;1325;25488;-77
2021/12/23 12:09:31;;;;;;;73.60;35.80;;;;;;;-2.74;70.85;98574.30;105031;1327;24685;-77
2021/12/23 12:11:58;;;;;;;74.80;31.60;;;;;;;-2.73;70.97;98567.14;104990;1326;22831;-76
2021/12/23 12:14:41;;;;;;;72.80;31.20;;;;;;;-2.72;70.79;98562.52;105002;1328;22713;-77
2021/12/23 12:17:23;;;;;;;103.80;40.20;;;;;;;-2.72;70.81;98551.62;105011;1327;22667;-76
2021/12/23 12:20:09;;;;;;;73.60;30.20;;;;;;;-2.68;70.98;98540.47;105037;1327;22591;-76